createdAt,value
2022-09-02T00:02:26.295Z,15.50
2022-09-02T00:04:54.225Z,15.50
2022-09-02T00:07:22.097Z,15.50
2022-09-02T00:09:50.015Z,15.50
2022-09-02T00:12:17.831Z,15.70
2022-09-02T00:14:45.700Z,15.80
2022-09-02T00:17:13.533Z,15.80
2022-09-02T00:19:41.351Z,15.80
2022-09-02T00:22:09.557Z,15.90
2022-09-02T00:24:37.484Z,15.90
2022-09-02T00:27:05.541Z,15.90
2022-09-02T00:29:33.380Z,15.90
2022-09-02T00:32:01.327Z,15.80
2022-09-02T00:34:29.203Z,15.60
2022-09-02T00:36:57.341Z,15.50
2022-09-02T00:39:26.271Z,15.40
2022-09-02T00:41:54.560Z,15.40
2022-09-02T00:44:22.468Z,15.40
2022-09-02T00:46:50.467Z,15.40
2022-09-02T00:49:27.386Z,15.40
2022-09-02T00:52:00.572Z,15.50
2022-09-02T00:54:30.966Z,15.40
2022-09-02T00:57:01.047Z,15.40
2022-09-02T01:00:11.063Z,15.30
2022-09-02T01:02:42.242Z,15.40
2022-09-02T01:05:13.098Z,15.30
2022-09-02T01:07:43.304Z,15.30
2022-09-02T01:10:17.487Z,15.30
2022-09-02T01:12:46.026Z,15.30
2022-09-02T01:15:15.535Z,15.40
2022-09-02T01:17:48.037Z,15.50
2022-09-02T01:20:21.328Z,15.50
2022-09-02T01:22:54.981Z,15.50
2022-09-02T01:25:27.098Z,15.60
2022-09-02T01:28:07.598Z,15.70
2022-09-02T01:30:37.353Z,15.70
2022-09-02T01:33:05.670Z,15.70
2022-09-02T01:35:33.552Z,15.70
2022-09-02T01:38:02.610Z,15.60
2022-09-02T01:40:31.794Z,15.60
2022-09-02T01:43:12.129Z,15.50
2022-09-02T01:45:42.878Z,15.40
2022-09-02T01:49:28.775Z,15.30
2022-09-02T01:52:00.350Z,15.20
2022-09-02T01:54:28.209Z,15.20
2022-09-02T01:56:56.047Z,15.20
2022-09-02T01:59:49.615Z,15.20
2022-09-02T02:02:19.360Z,15.10
2022-09-02T02:04:48.774Z,15.00
2022-09-02T02:07:19.561Z,14.90
2022-09-02T02:09:48.629Z,14.90
2022-09-02T02:12:18.647Z,14.90
2022-09-02T02:14:46.733Z,14.90
2022-09-02T02:17:14.628Z,15.10
2022-09-02T02:19:42.665Z,15.20
2022-09-02T02:22:10.829Z,15.20
2022-09-02T02:24:39.314Z,15.20
2022-09-02T02:27:07.347Z,15.20
2022-09-02T02:29:36.043Z,15.10
2022-09-02T02:32:04.117Z,15.10
2022-09-02T02:34:34.167Z,15.10
2022-09-02T02:37:02.098Z,15.10
2022-09-02T02:39:29.888Z,15.00
2022-09-02T02:41:58.593Z,15.00
2022-09-02T02:44:27.807Z,15.00
2022-09-02T02:46:55.886Z,15.00
2022-09-02T02:49:23.917Z,15.00
2022-09-02T02:51:51.761Z,15.00
2022-09-02T02:54:20.817Z,15.10
2022-09-02T02:56:49.479Z,15.10
2022-09-02T02:59:17.273Z,15.10
2022-09-02T03:01:45.218Z,15.10
2022-09-02T03:04:13.414Z,15.10
2022-09-02T03:06:41.224Z,15.00
2022-09-02T03:09:09.280Z,15.00
2022-09-02T03:11:38.453Z,15.00
2022-09-02T03:14:08.106Z,14.90
2022-09-02T03:16:36.506Z,14.90
2022-09-02T03:19:04.798Z,14.90
2022-09-02T03:21:38.762Z,14.90
2022-09-02T03:24:11.072Z,14.90
2022-09-02T03:26:42.505Z,14.90
2022-09-02T03:29:11.541Z,14.90
2022-09-02T03:31:39.613Z,14.90
2022-09-02T03:34:08.113Z,14.90
2022-09-02T03:36:39.325Z,14.90
2022-09-02T03:39:10.014Z,14.90
2022-09-02T03:41:43.724Z,15.00
2022-09-02T03:44:12.819Z,15.00
2022-09-02T03:46:42.871Z,15.10
2022-09-02T03:49:12.257Z,15.10
2022-09-02T03:51:42.078Z,15.10
2022-09-02T03:54:11.136Z,15.20
2022-09-02T03:56:40.502Z,15.20
2022-09-02T03:59:09.655Z,15.20
2022-09-02T04:01:37.744Z,15.10
2022-09-02T04:04:06.476Z,15.10
2022-09-02T04:06:36.247Z,15.00
2022-09-02T04:09:05.340Z,15.00
2022-09-02T04:11:34.623Z,15.10
2022-09-02T04:14:02.585Z,15.10
2022-09-02T04:16:31.320Z,15.20
2022-09-02T04:19:05.490Z,15.20
2022-09-02T04:21:35.376Z,15.10
2022-09-02T04:24:07.891Z,15.00
2022-09-02T04:26:37.554Z,15.00
2022-09-02T04:29:13.283Z,15.10
2022-09-02T04:31:42.924Z,15.10
2022-09-02T04:34:11.968Z,15.00
2022-09-02T04:36:41.797Z,15.00
2022-09-02T04:39:12.846Z,15.00
2022-09-02T04:41:40.944Z,15.00
2022-09-02T04:44:11.511Z,15.00
2022-09-02T04:46:42.794Z,14.90
2022-09-02T04:49:15.305Z,14.90
2022-09-02T04:51:45.011Z,14.90
2022-09-02T04:54:13.003Z,15.00
2022-09-02T04:56:43.742Z,15.00
2022-09-02T04:59:13.197Z,15.10
2022-09-02T05:01:47.257Z,15.30
2022-09-02T05:04:20.241Z,15.60
2022-09-02T05:06:53.209Z,15.70
2022-09-02T05:09:22.120Z,16.00
2022-09-02T05:11:57.749Z,16.40
2022-09-02T05:14:29.502Z,16.60
2022-09-02T05:17:05.310Z,16.60
2022-09-02T05:19:36.853Z,16.50
2022-09-02T05:22:05.067Z,16.60
2022-09-02T05:24:37.474Z,16.70
2022-09-02T05:27:09.513Z,16.70
2022-09-02T05:29:37.766Z,17.00
2022-09-02T05:32:08.227Z,16.60
2022-09-02T05:34:38.985Z,16.90
2022-09-02T05:37:07.726Z,17.00
2022-09-02T05:39:37.002Z,17.10
2022-09-02T05:42:06.855Z,17.40
2022-09-02T05:44:36.776Z,17.40
2022-09-02T05:47:05.828Z,17.30
2022-09-02T05:49:34.091Z,17.50
2022-09-02T05:52:10.285Z,17.90
2022-09-02T05:54:45.178Z,17.20
2022-09-02T05:57:17.518Z,17.30
2022-09-02T06:00:17.930Z,17.80
2022-09-02T06:02:55.701Z,18.40
2022-09-02T06:05:35.880Z,18.70
2022-09-02T06:08:13.239Z,18.70
2022-09-02T06:10:43.391Z,18.90
2022-09-02T06:13:15.842Z,18.90
2022-09-02T06:15:44.594Z,18.90
2022-09-02T06:18:13.638Z,19.10
2022-09-02T06:20:46.877Z,19.50
2022-09-02T06:23:16.968Z,19.30
2022-09-02T06:25:47.872Z,19.10
2022-09-02T06:28:16.612Z,19.30
2022-09-02T06:30:48.783Z,19.50
2022-09-02T06:33:19.867Z,19.70
2022-09-02T06:35:49.483Z,20.00
2022-09-02T06:38:20.520Z,19.50
2022-09-02T06:40:55.115Z,19.80
2022-09-02T06:43:42.445Z,20.20
2022-09-02T06:46:24.320Z,20.30
2022-09-02T06:48:55.412Z,20.40
2022-09-02T06:51:31.556Z,21.00
2022-09-02T06:54:01.908Z,21.00
2022-09-02T06:56:34.615Z,20.70
2022-09-02T06:59:03.724Z,20.60
2022-09-02T07:01:43.880Z,20.50
2022-09-02T07:04:32.846Z,21.30
2022-09-02T07:07:00.861Z,21.60
2022-09-02T07:09:32.553Z,21.30
2022-09-02T07:12:09.043Z,21.60
2022-09-02T07:14:43.931Z,21.80
2022-09-02T07:17:21.906Z,22.10
2022-09-02T07:19:56.048Z,22.20
2022-09-02T07:22:24.257Z,21.60
2022-09-02T07:24:52.857Z,21.70
2022-09-02T07:27:21.814Z,22.50
2022-09-02T07:29:51.206Z,23.10
2022-09-02T07:32:19.982Z,23.00
2022-09-02T07:34:48.989Z,22.40
2022-09-02T07:37:16.930Z,22.20
2022-09-02T07:39:45.864Z,22.70
2022-09-02T07:42:17.117Z,23.00
2022-09-02T07:44:45.569Z,22.80
2022-09-02T07:47:14.165Z,22.10
2022-09-02T07:52:34.091Z,22.50
2022-09-02T07:55:02.589Z,22.80
2022-09-02T07:57:31.935Z,21.70
2022-09-02T08:00:00.638Z,21.70
2022-09-02T08:02:28.680Z,21.50
2022-09-02T08:04:56.683Z,22.00
2022-09-02T08:07:25.127Z,22.20
2022-09-02T08:09:54.163Z,22.60
2022-09-02T08:12:22.614Z,23.00
2022-09-02T08:14:50.997Z,23.00
2022-09-02T08:17:18.893Z,22.70
2022-09-02T08:19:46.966Z,23.00
2022-09-02T08:22:15.376Z,23.20
2022-09-02T08:24:43.307Z,22.70
2022-09-02T08:27:11.697Z,22.50
2022-09-02T08:29:39.917Z,22.70
2022-09-02T08:32:07.785Z,23.10
2022-09-02T08:34:35.599Z,23.50
2022-09-02T08:37:03.468Z,24.10
2022-09-02T08:39:31.360Z,24.90
2022-09-02T08:42:33.023Z,24.60
2022-09-02T08:45:11.140Z,25.00
2022-09-02T08:48:29.658Z,25.40
2022-09-02T08:51:04.413Z,25.80
2022-09-02T08:53:39.756Z,25.80
2022-09-02T08:56:11.823Z,26.10
2022-09-02T08:58:44.022Z,26.30
2022-09-02T09:01:31.905Z,25.90
2022-09-02T09:04:08.563Z,25.80
2022-09-02T09:06:45.046Z,26.20
2022-09-02T09:09:15.782Z,25.80
2022-09-02T09:11:53.390Z,25.70
2022-09-02T09:14:44.222Z,25.60
2022-09-02T09:17:28.011Z,25.20
2022-09-02T09:20:00.650Z,25.10
2022-09-02T09:22:39.393Z,25.70
2022-09-02T09:25:14.195Z,26.40
2022-09-02T09:27:42.661Z,26.60
2022-09-02T09:30:15.030Z,26.20
2022-09-02T09:33:00.299Z,26.20
2022-09-02T09:35:46.568Z,26.20
2022-09-02T09:38:14.782Z,26.80
2022-09-02T09:40:42.740Z,26.70
2022-09-02T09:43:14.566Z,27.00
2022-09-02T09:45:51.617Z,27.10
2022-09-02T09:48:29.869Z,27.00
2022-09-02T09:50:57.652Z,26.40
2022-09-02T09:53:34.749Z,26.80
2022-09-02T09:56:07.688Z,26.80
2022-09-02T09:58:41.550Z,26.30
2022-09-02T10:01:15.776Z,26.20
2022-09-02T10:03:52.539Z,26.50
2022-09-02T10:06:42.121Z,26.00
2022-09-02T10:09:15.457Z,25.90
2022-09-02T10:12:05.199Z,25.50
2022-09-02T10:14:46.067Z,25.30
2022-09-02T10:17:26.785Z,25.30
2022-09-02T10:20:38.944Z,25.30
2022-09-02T10:23:34.946Z,25.70
2022-09-02T10:26:31.240Z,25.90
2022-09-02T10:29:28.240Z,26.40
2022-09-02T10:31:59.122Z,26.50
2022-09-02T10:34:45.906Z,26.60
2022-09-02T10:37:42.108Z,26.60
2022-09-02T10:40:19.720Z,26.10
2022-09-02T10:43:04.537Z,26.30
2022-09-02T10:45:47.945Z,26.30
2022-09-02T10:48:42.729Z,26.00
2022-09-02T10:51:29.033Z,25.90
2022-09-02T10:54:09.723Z,25.30
2022-09-02T10:56:54.576Z,25.40
2022-09-02T10:59:32.163Z,25.70
2022-09-02T11:02:14.471Z,26.10
2022-09-02T11:05:07.492Z,26.30
2022-09-02T11:07:44.183Z,26.30
2022-09-02T11:10:19.971Z,25.80
2022-09-02T11:12:57.205Z,25.30
2022-09-02T11:15:47.558Z,25.00
2022-09-02T11:18:42.934Z,25.20
2022-09-02T11:21:26.035Z,25.20
2022-09-02T11:24:20.295Z,25.20
2022-09-02T11:27:32.128Z,24.90
2022-09-02T11:30:21.087Z,25.40
2022-09-02T11:33:17.852Z,25.60
2022-09-02T11:35:46.469Z,26.10
2022-09-02T11:38:38.750Z,26.00
2022-09-02T11:41:38.191Z,25.50
2022-09-02T11:44:35.779Z,25.50
2022-09-02T11:47:26.441Z,26.10
2022-09-02T11:50:16.968Z,26.50
2022-09-02T11:53:18.478Z,26.00
2022-09-02T11:56:12.220Z,25.70
2022-09-02T11:58:46.435Z,25.70
2022-09-02T12:01:43.861Z,25.80
2022-09-02T12:04:58.776Z,26.10
2022-09-02T12:07:08.627Z,25.60
2022-09-02T12:09:56.944Z,25.80
2022-09-02T12:12:36.756Z,25.90
2022-09-02T12:15:05.518Z,25.90
2022-09-02T12:17:45.481Z,26.10
2022-09-02T12:20:36.732Z,26.20
2022-09-02T12:23:06.904Z,26.20
2022-09-02T12:25:48.409Z,26.50
2022-09-02T12:28:26.631Z,26.70
2022-09-02T12:31:01.554Z,26.70
2022-09-02T12:33:33.776Z,26.80
2022-09-02T12:36:04.884Z,27.00
2022-09-02T12:38:34.231Z,26.80
2022-09-02T12:41:05.308Z,26.50
2022-09-02T12:43:45.125Z,26.20
2022-09-02T12:46:22.992Z,26.50
2022-09-02T12:49:17.958Z,26.40
2022-09-02T12:51:51.730Z,26.50
2022-09-02T12:54:47.869Z,26.60
2022-09-02T12:57:19.464Z,26.70
2022-09-02T12:59:48.261Z,26.90
2022-09-02T13:02:43.528Z,26.90
2022-09-02T13:05:31.181Z,26.50
2022-09-02T13:08:17.789Z,26.30
2022-09-02T13:11:09.366Z,26.40
2022-09-02T13:14:07.049Z,26.30
2022-09-02T13:16:39.993Z,26.40
2022-09-02T13:19:37.436Z,26.50
2022-09-02T13:22:21.234Z,26.70
2022-09-02T13:25:21.249Z,26.90
2022-09-02T13:28:07.703Z,27.00
2022-09-02T13:31:04.076Z,27.00
2022-09-02T13:33:32.547Z,27.00
2022-09-02T13:36:00.644Z,27.10
2022-09-02T13:38:30.049Z,27.00
2022-09-02T13:40:57.996Z,27.00
2022-09-02T13:43:27.242Z,26.70
2022-09-02T13:46:01.108Z,26.30
2022-09-02T13:48:33.678Z,26.40
2022-09-02T13:51:13.547Z,26.30
2022-09-02T13:53:59.597Z,26.50
2022-09-02T13:56:33.559Z,26.10
2022-09-02T13:59:01.646Z,26.00
2022-09-02T14:02:19.277Z,26.20
2022-09-02T14:04:49.830Z,26.30
2022-09-02T14:07:23.877Z,26.40
2022-09-02T14:09:52.927Z,26.20
2022-09-02T14:12:21.211Z,26.20
2022-09-02T14:14:49.405Z,26.20
2022-09-02T14:17:22.327Z,26.20
2022-09-02T14:19:51.306Z,26.40
2022-09-02T14:22:29.895Z,26.60
2022-09-02T14:24:57.870Z,26.50
2022-09-02T14:27:26.153Z,26.50
2022-09-02T14:29:57.577Z,26.50
2022-09-02T14:32:28.066Z,26.60
2022-09-02T14:35:17.574Z,26.60
2022-09-02T14:37:56.147Z,26.80
2022-09-02T14:40:38.501Z,27.00
2022-09-02T14:43:14.286Z,26.90
2022-09-02T14:45:47.823Z,27.00
2022-09-02T14:48:25.008Z,27.10
2022-09-02T14:51:04.212Z,26.90
2022-09-02T14:53:32.599Z,26.70
2022-09-02T14:56:00.949Z,26.70
2022-09-02T14:58:30.970Z,26.90
2022-09-02T15:01:00.651Z,27.10
2022-09-02T15:03:30.529Z,27.10
2022-09-02T15:05:58.488Z,27.00
2022-09-02T15:08:26.410Z,26.90
2022-09-02T15:10:58.227Z,26.70
2022-09-02T15:13:28.493Z,26.60
2022-09-02T15:15:57.070Z,26.50
2022-09-02T15:18:25.884Z,26.50
2022-09-02T15:20:54.323Z,26.40
2022-09-02T15:23:24.214Z,26.40
2022-09-02T15:25:54.291Z,26.30
2022-09-02T15:28:22.318Z,26.30
2022-09-02T15:30:58.244Z,26.20
2022-09-02T15:33:27.500Z,26.20
2022-09-02T15:35:55.801Z,26.10
2022-09-02T15:38:23.880Z,26.10
2022-09-02T15:40:51.915Z,26.00
2022-09-02T15:43:21.413Z,26.00
2022-09-02T15:45:49.344Z,26.00
2022-09-02T15:48:17.190Z,26.00
2022-09-02T15:50:46.574Z,26.00
2022-09-02T15:53:16.041Z,26.00
2022-09-02T15:55:44.174Z,26.10
2022-09-02T15:58:12.575Z,26.10
2022-09-02T16:00:41.740Z,26.10
2022-09-02T16:03:12.043Z,26.10
2022-09-02T16:05:43.215Z,26.10
2022-09-02T16:08:11.773Z,26.00
2022-09-02T16:10:40.422Z,26.00
2022-09-02T16:13:08.406Z,26.00
2022-09-02T16:15:36.173Z,25.90
2022-09-02T16:18:04.106Z,25.80
2022-09-02T16:20:31.980Z,25.80
2022-09-02T16:22:59.835Z,25.70
2022-09-02T16:25:27.760Z,25.60
2022-09-02T16:27:56.510Z,25.60
2022-09-02T16:30:25.767Z,25.60
2022-09-02T16:32:54.569Z,25.50
2022-09-02T16:35:22.395Z,25.40
2022-09-02T16:37:50.417Z,25.30
2022-09-02T16:40:21.630Z,25.30
2022-09-02T16:42:49.960Z,25.20
2022-09-02T16:45:17.806Z,25.10
2022-09-02T16:47:45.814Z,25.10
2022-09-02T16:50:13.857Z,25.00
2022-09-02T16:52:41.663Z,24.90
2022-09-02T16:55:10.664Z,24.90
2022-09-02T16:57:38.527Z,24.90
2022-09-02T17:00:07.279Z,24.90
2022-09-02T17:02:35.673Z,24.80
2022-09-02T17:05:03.638Z,24.80
2022-09-02T17:07:31.531Z,24.70
2022-09-02T17:09:59.344Z,24.60
2022-09-02T17:12:27.178Z,24.60
2022-09-02T17:14:54.987Z,24.50
2022-09-02T17:17:22.812Z,24.50
2022-09-02T17:19:50.711Z,24.50
2022-09-02T17:22:18.518Z,24.40
2022-09-02T17:24:48.573Z,24.30
2022-09-02T17:27:19.664Z,24.30
2022-09-02T17:29:49.605Z,24.20
2022-09-02T17:32:21.185Z,24.10
2022-09-02T17:40:40.375Z,24.00
2022-09-02T17:43:15.340Z,23.90
2022-09-02T17:45:43.551Z,23.80
2022-09-02T17:48:34.766Z,23.80
2022-09-02T17:50:59.335Z,23.80
2022-09-02T17:53:27.910Z,23.70
2022-09-02T17:56:21.776Z,23.70
2022-09-02T17:59:13.725Z,23.60
2022-09-02T18:01:53.197Z,23.60
2022-09-02T18:04:53.192Z,23.50
2022-09-02T18:07:35.642Z,23.50
2022-09-02T18:10:03.995Z,23.40
2022-09-02T18:12:33.713Z,23.30
2022-09-02T18:15:03.087Z,23.20
2022-09-02T18:17:45.107Z,23.20
2022-09-02T18:20:22.245Z,23.10
2022-09-02T18:23:09.086Z,23.10
2022-09-02T18:25:48.718Z,23.00
2022-09-02T18:28:45.302Z,22.90
2022-09-02T18:31:21.936Z,22.90
2022-09-02T18:34:01.151Z,22.90
2022-09-02T18:36:52.032Z,22.90
2022-09-02T18:39:27.149Z,22.80
2022-09-02T18:42:00.733Z,22.80
2022-09-02T18:44:40.707Z,22.80
2022-09-02T18:47:46.091Z,22.80
2022-09-02T18:50:55.586Z,22.70
2022-09-02T18:53:28.419Z,22.50
2022-09-02T18:55:58.006Z,22.50
2022-09-02T18:58:36.457Z,22.50
2022-09-02T19:01:35.508Z,22.50
2022-09-02T19:04:03.562Z,22.40
2022-09-02T19:06:36.485Z,22.20
2022-09-02T19:09:05.449Z,22.00
2022-09-02T19:11:35.221Z,21.80
2022-09-02T19:14:09.108Z,21.70
2022-09-02T19:16:38.905Z,21.50
2022-09-02T19:19:08.078Z,21.40
2022-09-02T19:21:59.310Z,21.40
2022-09-02T19:24:58.014Z,21.40
2022-09-02T19:27:33.859Z,21.40
2022-09-02T19:30:13.209Z,21.50
2022-09-02T19:32:45.378Z,21.50
2022-09-02T19:35:19.381Z,21.50
2022-09-02T19:37:51.553Z,21.60
2022-09-02T19:40:24.593Z,21.60
2022-09-02T19:42:55.716Z,21.60
2022-09-02T19:45:23.675Z,21.60
2022-09-02T19:48:08.741Z,21.60
2022-09-02T19:50:45.036Z,21.60
2022-09-02T19:53:30.494Z,21.40
2022-09-02T19:56:01.708Z,21.30
2022-09-02T19:58:29.608Z,21.20
2022-09-02T20:00:59.207Z,21.10
2022-09-02T20:03:28.262Z,21.00
2022-09-02T20:05:56.229Z,20.90
2022-09-02T20:08:31.058Z,20.80
2022-09-02T20:11:01.618Z,20.80
2022-09-02T20:13:30.994Z,20.90
2022-09-02T20:15:58.864Z,20.80
2022-09-02T20:18:26.958Z,20.90
2022-09-02T20:20:57.468Z,20.80
2022-09-02T20:23:27.655Z,20.60
2022-09-02T20:26:10.985Z,20.50
2022-09-02T20:29:25.203Z,20.50
2022-09-02T20:31:59.106Z,20.40
2022-09-02T20:34:35.972Z,20.30
2022-09-02T20:37:30.524Z,20.20
2022-09-02T20:40:34.382Z,20.10
2022-09-02T20:43:20.656Z,20.00
2022-09-02T20:46:01.967Z,20.10
2022-09-02T20:48:52.783Z,20.20
2022-09-02T20:51:37.036Z,20.20
2022-09-02T20:54:23.073Z,20.20
2022-09-02T20:57:15.323Z,20.20
2022-09-02T21:00:08.909Z,20.20
2022-09-02T21:02:45.286Z,20.10
2022-09-02T21:05:22.450Z,20.00
2022-09-02T21:08:05.672Z,20.00
2022-09-02T21:10:43.175Z,19.90
2022-09-02T21:13:19.885Z,19.90
2022-09-02T21:15:56.373Z,19.80
2022-09-02T21:18:35.481Z,19.60
2022-09-02T21:21:10.618Z,19.60
2022-09-02T21:24:02.965Z,19.50
2022-09-02T21:26:56.724Z,19.40
2022-09-02T21:29:38.355Z,19.30
2022-09-02T21:32:40.311Z,19.30
2022-09-02T21:35:16.196Z,19.30
2022-09-02T21:37:45.533Z,19.30
2022-09-02T21:40:17.960Z,19.30
2022-09-02T21:43:00.423Z,19.40
2022-09-02T21:45:46.660Z,19.40
2022-09-02T21:48:41.131Z,19.40
2022-09-02T21:51:27.956Z,19.40
2022-09-02T21:54:17.009Z,19.30
2022-09-02T21:57:14.354Z,19.20
2022-09-02T22:00:07.860Z,19.20
2022-09-02T22:03:10.553Z,19.20
2022-09-02T22:05:50.578Z,19.20
2022-09-02T22:08:40.554Z,19.30
2022-09-02T22:11:27.341Z,19.30
2022-09-02T22:13:58.739Z,19.30
2022-09-02T22:16:46.078Z,19.30
2022-09-02T22:19:14.710Z,19.30
2022-09-02T22:21:51.373Z,19.20
2022-09-02T22:24:29.773Z,19.10
2022-09-02T22:26:58.539Z,19.20
2022-09-02T22:29:36.670Z,19.20
2022-09-02T22:32:08.760Z,19.20
2022-09-02T22:34:43.694Z,19.20
2022-09-02T22:37:18.708Z,19.20
2022-09-02T22:39:58.159Z,19.20
2022-09-02T22:42:36.064Z,19.10
2022-09-02T22:45:30.239Z,19.00
2022-09-02T22:48:48.113Z,18.90
2022-09-02T22:52:06.165Z,18.90
2022-09-02T22:54:34.217Z,18.90
2022-09-02T22:57:12.026Z,18.80
2022-09-02T23:00:01.332Z,18.90
2022-09-02T23:02:37.182Z,18.80
2022-09-02T23:05:49.336Z,18.80
2022-09-02T23:08:20.574Z,18.80
2022-09-02T23:11:25.183Z,18.80
2022-09-02T23:14:09.142Z,18.80
2022-09-02T23:16:58.907Z,18.80
2022-09-02T23:19:56.938Z,18.80
2022-09-02T23:22:45.697Z,18.80
2022-09-02T23:25:40.230Z,18.80
2022-09-02T23:28:14.885Z,18.80
2022-09-02T23:31:08.618Z,18.80
2022-09-02T23:34:30.603Z,18.70
2022-09-02T23:37:43.576Z,18.60
2022-09-02T23:40:26.257Z,18.50
2022-09-02T23:42:54.359Z,18.50
2022-09-02T23:45:33.787Z,18.50
2022-09-02T23:48:30.038Z,18.50
2022-09-02T23:51:05.520Z,18.40
2022-09-02T23:53:50.644Z,18.50
2022-09-02T23:56:33.673Z,18.40
2022-09-02T23:59:11.723Z,18.40
